Time;durP1;ratioP1;P1;durP2;ratioP2;P2;SDS_P1;SDS_P2;PMS_P1;PMS_P2;Temp;Humidity;BMP_temperature;BMP_pressure;BME280_temperature;BME280_humidity;BME280_pressure;Samples;Min_cycle;Max_cycle;Signal;HPM_P1;HPM_P2
2022/07/26 00:01:00;;;;;;;5.68;2.40;;;18.80;99.90;;;;;;5074942;28;20051;-76
2022/07/26 00:03:25;;;;;;;7.53;2.40;;;18.90;99.90;;;;;;5074820;28;20045;-76
2022/07/26 00:05:51;;;;;;;8.88;2.63;;;18.90;99.90;;;;;;5074930;28;20155;-76
2022/07/26 00:08:17;;;;;;;6.93;2.60;;;18.90;99.90;;;;;;5076042;28;20384;-76
2022/07/26 00:10:47;;;;;;;9.02;2.95;;;18.90;99.90;;;;;;5076032;28;20036;-76
2022/07/26 00:13:16;;;;;;;10.25;3.13;;;18.90;99.90;;;;;;5074732;28;20051;-76
2022/07/26 00:15:42;;;;;;;5.78;2.40;;;18.80;99.90;;;;;;5075904;28;20127;-76
2022/07/26 00:18:08;;;;;;;6.53;2.20;;;18.90;99.90;;;;;;5074562;28;20392;-76
2022/07/26 00:20:34;;;;;;;8.00;2.17;;;18.90;99.90;;;;;;5075833;28;20036;-76
2022/07/26 00:23:00;;;;;;;4.20;2.45;;;18.90;99.90;;;;;;5074167;28;20063;-76
2022/07/26 00:25:26;;;;;;;7.65;2.50;;;19.00;99.90;;;;;;5075728;28;20041;-76
2022/07/26 00:27:51;;;;;;;7.68;2.33;;;18.90;99.90;;;;;;5075697;28;20045;-76
2022/07/26 00:30:17;;;;;;;7.93;2.40;;;18.90;99.90;;;;;;5074638;28;20048;-76
2022/07/26 00:32:43;;;;;;;10.10;2.40;;;18.90;99.90;;;;;;5074327;28;20072;-76
2022/07/26 00:35:09;;;;;;;14.80;2.58;;;18.90;99.90;;;;;;5074088;28;20125;-76
2022/07/26 00:37:35;;;;;;;7.82;3.08;;;18.90;99.90;;;;;;5075582;28;20102;-76
2022/07/26 00:40:00;;;;;;;8.00;2.40;;;18.90;99.90;;;;;;5075273;28;20044;-76
2022/07/26 00:42:26;;;;;;;7.22;2.55;;;18.80;99.90;;;;;;5075364;28;20044;-76
2022/07/26 00:44:52;;;;;;;11.23;2.78;;;18.80;99.90;;;;;;5075334;28;20519;-76
2022/07/26 00:47:17;;;;;;;6.60;2.90;;;18.80;99.90;;;;;;5075698;28;20036;-76
2022/07/26 00:49:43;;;;;;;10.40;2.85;;;18.70;99.90;;;;;;5073826;28;20047;-76
2022/07/26 00:52:09;;;;;;;14.77;3.40;;;18.70;99.90;;;;;;5074102;28;20056;-76
2022/07/26 00:54:36;;;;;;;10.82;3.55;;;18.70;99.90;;;;;;5073847;28;20082;-76
2022/07/26 00:57:03;;;;;;;7.95;3.03;;;18.70;99.90;;;;;;5075013;28;20518;-76
2022/07/26 00:59:29;;;;;;;9.68;3.50;;;18.70;99.90;;;;;;5075049;28;20116;-76
2022/07/26 01:01:54;;;;;;;5.90;2.90;;;18.60;99.90;;;;;;5074821;28;20132;-76
2022/07/26 01:04:20;;;;;;;9.00;3.10;;;18.70;99.90;;;;;;5074990;28;20036;-76
2022/07/26 01:06:47;;;;;;;10.30;3.17;;;18.60;99.90;;;;;;5075072;28;20044;-76
2022/07/26 01:09:13;;;;;;;9.38;3.08;;;18.60;99.90;;;;;;5074879;28;20162;-76
2022/07/26 01:11:39;;;;;;;8.38;3.13;;;18.70;99.90;;;;;;5073464;28;20138;-76
2022/07/26 01:14:05;;;;;;;10.52;3.47;;;18.60;99.90;;;;;;5074736;28;20036;-76
2022/07/26 01:16:31;;;;;;;7.60;3.08;;;18.60;99.90;;;;;;5073675;28;20094;-76
2022/07/26 01:18:59;;;;;;;10.00;3.30;;;18.70;99.90;;;;;;5074477;28;20080;-76
2022/07/26 01:21:31;;;;;;;8.27;2.92;;;18.70;99.90;;;;;;5074561;28;20122;-76
2022/07/26 01:23:57;;;;;;;7.35;3.03;;;18.70;99.90;;;;;;5074312;28;20567;-76
2022/07/26 01:26:23;;;;;;;9.00;2.55;;;18.80;99.90;;;;;;5074522;28;20044;-76
2022/07/26 01:28:49;;;;;;;10.38;2.78;;;18.70;99.90;;;;;;5074466;28;20041;-76
2022/07/26 01:31:15;;;;;;;10.18;2.53;;;18.70;99.90;;;;;;5074412;28;20043;-76
2022/07/26 01:33:41;;;;;;;10.98;2.80;;;18.70;99.90;;;;;;5072987;28;20040;-76
2022/07/26 01:36:07;;;;;;;15.70;3.33;;;18.80;99.90;;;;;;5074337;28;20105;-76
2022/07/26 01:38:33;;;;;;;14.57;3.63;;;18.70;99.90;;;;;;5074177;28;20408;-76
2022/07/26 01:40:59;;;;;;;10.43;2.42;;;18.70;99.90;;;;;;5074125;28;20503;-76
2022/07/26 01:43:25;;;;;;;12.20;3.03;;;18.70;99.90;;;;;;5072903;28;20052;-76
2022/07/26 01:45:50;;;;;;;8.95;2.70;;;18.50;99.90;;;;;;5073891;28;20389;-76
2022/07/26 01:48:16;;;;;;;12.68;2.47;;;18.40;99.90;;;;;;5072726;28;20049;-75
2022/07/26 01:50:42;;;;;;;15.65;2.95;;;18.40;99.90;;;;;;5073947;28;20044;-75
2022/07/26 01:53:08;;;;;;;10.57;2.53;;;18.30;99.90;;;;;;5074079;28;20041;-75
2022/07/26 01:55:34;;;;;;;11.15;2.38;;;18.30;99.90;;;;;;5074094;28;20047;-75
2022/07/26 01:57:59;;;;;;;11.65;2.38;;;18.20;99.90;;;;;;5073972;28;20040;-75
2022/07/26 02:00:25;;;;;;;11.60;2.25;;;18.20;99.90;;;;;;5073725;28;20044;-75
2022/07/26 02:02:51;;;;;;;9.10;1.50;;;18.20;99.90;;;;;;5073830;28;20041;-75
2022/07/26 02:05:16;;;;;;;8.88;1.80;;;18.10;99.90;;;;;;5072535;28;20044;-75
2022/07/26 02:07:42;;;;;;;9.93;1.52;;;18.10;99.90;;;;;;5073734;28;20045;-75
2022/07/26 02:10:09;;;;;;;11.00;1.60;;;18.00;99.90;;;;;;5072831;28;20095;-75
2022/07/26 02:12:36;;;;;;;10.57;1.27;;;18.00;99.90;;;;;;5073809;28;20044;-76
2022/07/26 02:15:04;;;;;;;6.50;1.42;;;18.00;99.90;;;;;;5073793;28;20058;-75
2022/07/26 02:17:30;;;;;;;6.35;1.25;;;18.00;99.90;;;;;;5073370;28;20109;-75
2022/07/26 02:19:55;;;;;;;11.13;1.85;;;18.00;99.90;;;;;;5072668;28;20432;-75
2022/07/26 02:22:21;;;;;;;8.98;1.67;;;17.90;99.90;;;;;;5073397;28;20041;-75
2022/07/26 02:24:47;;;;;;;13.27;1.50;;;17.90;99.90;;;;;;5073679;28;20454;-75
2022/07/26 02:27:14;;;;;;;7.63;1.17;;;17.90;99.90;;;;;;5073554;28;20514;-75
2022/07/26 02:29:39;;;;;;;8.98;1.10;;;17.90;99.90;;;;;;5073707;28;20044;-76
2022/07/26 02:32:05;;;;;;;7.68;1.50;;;17.90;99.90;;;;;;5072235;28;20128;-75
2022/07/26 02:34:31;;;;;;;8.27;1.00;;;17.90;99.90;;;;;;5073441;28;20033;-76
2022/07/26 02:36:57;;;;;;;7.80;1.17;;;17.90;99.90;;;;;;5073617;28;20044;-76
2022/07/26 02:39:26;;;;;;;9.38;0.93;;;17.80;99.90;;;;;;5073538;28;20036;-75
2022/07/26 02:41:54;;;;;;;3.90;0.93;;;17.80;99.90;;;;;;5073360;28;20548;-75
2022/07/26 02:44:19;;;;;;;6.22;0.98;;;17.70;99.90;;;;;;5073506;28;20098;-75
2022/07/26 02:46:45;;;;;;;10.27;1.10;;;17.80;99.90;;;;;;5072089;28;20044;-76
2022/07/26 02:49:11;;;;;;;8.65;1.08;;;17.80;99.90;;;;;;5072139;28;20050;-76
2022/07/26 02:51:36;;;;;;;9.70;1.10;;;17.80;99.90;;;;;;5073281;28;20048;-76
2022/07/26 02:54:02;;;;;;;6.28;1.48;;;17.80;99.90;;;;;;5073440;28;20076;-76
2022/07/26 02:56:28;;;;;;;5.47;1.10;;;17.70;99.90;;;;;;5072114;28;20086;-75
2022/07/26 02:58:54;;;;;;;5.63;0.85;;;17.70;99.90;;;;;;5073132;28;20053;-76
2022/07/26 03:01:20;;;;;;;6.57;1.15;;;17.70;99.90;;;;;;5073359;28;20044;-75
2022/07/26 03:03:46;;;;;;;5.97;0.90;;;17.60;99.90;;;;;;5071888;28;20139;-76
2022/07/26 03:06:12;;;;;;;6.65;0.73;;;17.60;99.90;;;;;;5073284;28;20047;-76
2022/07/26 03:08:37;;;;;;;6.47;1.00;;;17.60;99.90;;;;;;5073290;28;20387;-76
2022/07/26 03:11:04;;;;;;;5.63;0.85;;;17.70;99.90;;;;;;5072186;28;20041;-76
2022/07/26 03:13:29;;;;;;;6.80;0.85;;;17.60;99.90;;;;;;5073213;28;20048;-76
2022/07/26 03:15:55;;;;;;;4.97;0.75;;;17.70;99.90;;;;;;5073197;28;20040;-76
2022/07/26 03:18:20;;;;;;;6.00;0.70;;;17.60;99.90;;;;;;5072968;28;20149;-75
2022/07/26 03:20:46;;;;;;;5.72;0.85;;;17.60;99.90;;;;;;5071820;28;20556;-76
2022/07/26 03:23:12;;;;;;;5.10;0.80;;;17.60;99.90;;;;;;5088326;28;20144;-76
2022/07/26 03:25:38;;;;;;;5.60;0.60;;;17.50;99.90;;;;;;5073111;28;20134;-75
2022/07/26 03:28:04;;;;;;;8.20;1.13;;;17.60;99.90;;;;;;5073070;28;20044;-76
2022/07/26 03:30:29;;;;;;;7.78;0.85;;;17.60;99.90;;;;;;5074662;28;20041;-75
2022/07/26 03:32:55;;;;;;;5.57;1.05;;;17.60;99.90;;;;;;5076745;28;20044;-76
2022/07/26 03:35:20;;;;;;;6.35;0.73;;;17.60;99.90;;;;;;5076474;28;20135;-75
2022/07/26 03:37:46;;;;;;;6.10;0.68;;;17.50;99.90;;;;;;5074984;28;20067;-75
2022/07/26 03:40:14;;;;;;;5.55;0.75;;;17.50;99.90;;;;;;5075476;28;20055;-76
2022/07/26 03:42:39;;;;;;;4.50;0.50;;;17.40;99.90;;;;;;5073899;28;20123;-75
2022/07/26 03:45:06;;;;;;;5.03;0.80;;;17.40;99.90;;;;;;5075259;28;20382;-76
2022/07/26 03:47:31;;;;;;;7.28;0.98;;;17.30;99.90;;;;;;5075432;28;20040;-76
2022/07/26 03:49:57;;;;;;;8.55;0.85;;;17.40;99.90;;;;;;5074177;28;20048;-75
2022/07/26 03:52:22;;;;;;;5.05;1.02;;;17.40;99.90;;;;;;5073213;28;20400;-75
2022/07/26 03:54:48;;;;;;;4.72;1.02;;;17.30;99.90;;;;;;5076228;28;20075;-75
2022/07/26 03:57:13;;;;;;;4.43;0.65;;;17.40;99.90;;;;;;5074838;28;20064;-75
2022/07/26 03:59:39;;;;;;;5.70;0.68;;;17.40;99.90;;;;;;5076133;28;20079;-76
2022/07/26 04:02:05;;;;;;;3.63;0.60;;;17.30;99.90;;;;;;5091701;28;20048;-75
2022/07/26 04:04:31;;;;;;;5.22;0.70;;;17.30;99.90;;;;;;5076085;28;20049;-75
2022/07/26 04:06:56;;;;;;;5.50;0.70;;;17.30;99.90;;;;;;5074852;28;20044;-75
2022/07/26 04:09:22;;;;;;;3.40;0.35;;;17.30;99.90;;;;;;5074401;28;20440;-75
2022/07/26 04:11:48;;;;;;;5.53;0.50;;;17.30;99.90;;;;;;5074702;28;20072;-75
2022/07/26 04:14:14;;;;;;;4.10;0.40;;;17.30;99.90;;;;;;5075721;28;20561;-75
2022/07/26 04:16:39;;;;;;;6.43;0.50;;;17.30;99.90;;;;;;5075845;28;20166;-75
2022/07/26 04:19:06;;;;;;;3.65;0.52;;;17.20;99.90;;;;;;5075670;28;20395;-75
2022/07/26 04:21:32;;;;;;;4.75;0.60;;;17.20;99.90;;;;;;5075539;28;20046;-76
2022/07/26 04:23:57;;;;;;;2.05;0.45;;;17.30;99.90;;;;;;5073946;28;20071;-75
2022/07/26 04:26:23;;;;;;;5.57;0.80;;;17.20;99.90;;;;;;5075661;28;20051;-76
2022/07/26 04:28:49;;;;;;;6.65;0.77;;;17.30;99.90;;;;;;5075646;28;20049;-76
2022/07/26 04:31:15;;;;;;;7.40;1.25;;;17.20;99.90;;;;;;5074331;28;20056;-76
2022/07/26 04:33:41;;;;;;;5.15;0.90;;;17.30;99.90;;;;;;5075483;28;20041;-75
2022/07/26 04:36:09;;;;;;;10.85;1.98;;;17.20;99.90;;;;;;5074228;28;20052;-76
2022/07/26 04:38:35;;;;;;;5.70;1.55;;;17.10;99.90;;;;;;5075093;28;20044;-75
2022/07/26 04:41:01;;;;;;;5.47;0.80;;;17.00;99.90;;;;;;5075058;28;20049;-76
2022/07/26 04:43:26;;;;;;;3.10;0.82;;;17.00;99.90;;;;;;5075277;28;20385;-75
2022/07/26 04:45:52;;;;;;;6.60;0.77;;;17.00;99.90;;;;;;5075140;28;20045;-75
2022/07/26 04:48:18;;;;;;;7.80;0.90;;;16.90;99.90;;;;;;5073991;28;20060;-76
2022/07/26 04:50:43;;;;;;;4.88;1.00;;;16.90;99.90;;;;;;5075187;28;20047;-76
2022/07/26 04:53:12;;;;;;;7.22;0.98;;;16.90;99.90;;;;;;5075091;28;20476;-76
2022/07/26 04:55:39;;;;;;;4.43;0.60;;;16.90;99.90;;;;;;5074865;28;20096;-76
2022/07/26 04:58:04;;;;;;;6.13;0.82;;;17.00;99.90;;;;;;5075107;28;20048;-76
2022/07/26 05:00:30;;;;;;;5.53;0.50;;;17.00;99.90;;;;;;5074708;28;20037;-75
2022/07/26 05:02:58;;;;;;;6.70;0.60;;;17.00;99.90;;;;;;5074694;28;20123;-76
2022/07/26 05:05:27;;;;;;;5.65;0.70;;;17.00;99.90;;;;;;5073423;28;20087;-76
2022/07/26 05:07:55;;;;;;;6.80;1.17;;;17.00;99.90;;;;;;5074809;28;20466;-75
2022/07/26 05:10:26;;;;;;;5.43;0.70;;;17.00;99.90;;;;;;5073632;28;20080;-75
2022/07/26 05:12:52;;;;;;;5.70;0.80;;;17.10;99.90;;;;;;5074811;28;20068;-76
2022/07/26 05:15:18;;;;;;;8.23;0.98;;;17.10;99.90;;;;;;5073228;28;20087;-76
2022/07/26 05:17:45;;;;;;;3.90;0.63;;;17.10;99.90;;;;;;5073705;28;20046;-76
2022/07/26 05:20:14;;;;;;;7.07;0.68;;;17.10;99.90;;;;;;5074449;28;20400;-76
2022/07/26 05:22:40;;;;;;;6.57;0.85;;;17.10;99.90;;;;;;5074268;28;20106;-76
2022/07/26 05:25:07;;;;;;;6.38;0.63;;;17.10;99.90;;;;;;5073073;28;20048;-76
2022/07/26 05:27:33;;;;;;;4.82;0.63;;;17.10;99.90;;;;;;5074484;28;20052;-76
2022/07/26 05:29:58;;;;;;;7.78;0.80;;;17.20;99.90;;;;;;5074436;28;20041;-76
2022/07/26 05:32:24;;;;;;;6.80;1.10;;;17.20;99.90;;;;;;5073016;28;20052;-76
2022/07/26 05:34:50;;;;;;;7.65;0.82;;;17.20;99.90;;;;;;5074074;28;20098;-76
2022/07/26 05:37:16;;;;;;;8.90;1.05;;;17.20;99.90;;;;;;5074347;28;20157;-75
2022/07/26 05:39:42;;;;;;;4.68;0.82;;;17.20;99.90;;;;;;5074223;28;20045;-75
2022/07/26 05:42:07;;;;;;;6.18;1.05;;;17.20;99.90;;;;;;5073927;28;20506;-76
2022/07/26 05:44:33;;;;;;;11.52;2.28;;;17.10;99.90;;;;;;5072651;28;20048;-76
2022/07/26 05:46:58;;;;;;;7.25;1.02;;;17.20;99.90;;;;;;5074191;28;20036;-75
2022/07/26 05:49:27;;;;;;;7.38;0.63;;;17.10;99.90;;;;;;5072824;28;20048;-75
2022/07/26 05:51:52;;;;;;;5.85;0.70;;;17.10;99.90;;;;;;5072500;28;20044;-76
2022/07/26 05:54:20;;;;;;;4.22;0.45;;;17.10;99.90;;;;;;5073442;28;20052;-76
2022/07/26 05:56:46;;;;;;;6.50;0.63;;;17.20;99.90;;;;;;5073982;28;20098;-76
2022/07/26 05:59:12;;;;;;;4.30;0.77;;;17.20;99.90;;;;;;5072502;28;20072;-75
2022/07/26 06:01:37;;;;;;;4.65;0.70;;;17.20;99.90;;;;;;5073652;28;20076;-76
2022/07/26 06:04:03;;;;;;;3.00;0.40;;;17.20;99.90;;;;;;5073803;28;20051;-76
2022/07/26 06:06:29;;;;;;;5.85;0.93;;;17.20;99.90;;;;;;5073644;28;20051;-76
2022/07/26 06:08:55;;;;;;;4.47;0.70;;;17.20;99.90;;;;;;5072343;28;20052;-76
2022/07/26 06:11:21;;;;;;;3.88;0.55;;;17.10;99.90;;;;;;5073833;28;20040;-76
2022/07/26 06:13:49;;;;;;;6.60;0.80;;;17.20;99.90;;;;;;5073725;28;20051;-76
2022/07/26 06:16:15;;;;;;;8.68;0.98;;;17.20;99.90;;;;;;5073705;28;20090;-76
2022/07/26 06:18:40;;;;;;;5.70;0.73;;;17.20;99.90;;;;;;5073718;28;20037;-76
2022/07/26 06:21:06;;;;;;;4.22;0.70;;;17.30;99.90;;;;;;5073398;28;20036;-76
2022/07/26 06:23:32;;;;;;;6.43;0.73;;;17.30;99.90;;;;;;5073247;28;20048;-75
2022/07/26 06:26:13;;;;;;;6.80;1.63;;;17.30;99.90;;;;;;5050605;28;20055;-76
2022/07/26 06:28:39;;;;;;;5.85;0.60;;;17.30;99.90;;;;;;5073726;28;20396;-75
2022/07/26 06:31:05;;;;;;;7.60;0.80;;;17.30;99.90;;;;;;5073250;28;20403;-75
2022/07/26 06:33:30;;;;;;;3.70;0.70;;;17.30;99.90;;;;;;5073332;28;20123;-75
2022/07/26 06:35:56;;;;;;;4.70;0.73;;;17.30;99.90;;;;;;5073268;28;20115;-75
2022/07/26 06:38:22;;;;;;;7.22;0.93;;;17.30;99.90;;;;;;5072243;28;20044;-76
2022/07/26 06:40:47;;;;;;;7.55;1.05;;;17.40;99.90;;;;;;5072057;28;20079;-75
2022/07/26 06:43:13;;;;;;;4.30;0.65;;;17.40;99.90;;;;;;5071898;28;20046;-75
2022/07/26 06:45:39;;;;;;;8.73;0.95;;;17.40;99.90;;;;;;5073204;28;20048;-76
2022/07/26 06:48:04;;;;;;;8.23;1.38;;;17.50;99.90;;;;;;5071903;28;20048;-75
2022/07/26 06:50:30;;;;;;;8.07;1.38;;;17.50;99.90;;;;;;5073439;28;20498;-76
2022/07/26 06:52:56;;;;;;;6.20;1.20;;;17.60;99.90;;;;;;5071915;28;20051;-76
2022/07/26 06:55:21;;;;;;;9.13;1.10;;;17.60;99.90;;;;;;5077055;28;20040;-75
2022/07/26 06:57:47;;;;;;;8.10;1.40;;;17.60;99.90;;;;;;5080298;28;20044;-75
2022/07/26 07:00:13;;;;;;;7.80;1.20;;;17.70;99.90;;;;;;5072715;28;20462;-75
2022/07/26 07:02:39;;;;;;;5.78;1.00;;;17.60;99.90;;;;;;5072792;28;20048;-74
2022/07/26 07:05:05;;;;;;;7.88;1.10;;;17.60;99.90;;;;;;5075660;28;20040;-74
2022/07/26 07:07:30;;;;;;;7.53;0.77;;;17.60;99.90;;;;;;5077044;28;20076;-74
2022/07/26 07:09:56;;;;;;;8.05;1.00;;;17.50;99.90;;;;;;5076763;28;20068;-74
2022/07/26 07:12:22;;;;;;;7.10;0.80;;;17.50;99.90;;;;;;5075395;28;20045;-74
2022/07/26 07:14:47;;;;;;;7.78;1.17;;;17.60;99.90;;;;;;5076588;28;20044;-75
2022/07/26 07:17:18;;;;;;;9.35;1.83;;;17.60;99.90;;;;;;5076767;28;20040;-74
2022/07/26 07:19:44;;;;;;;9.02;1.63;;;17.60;99.90;;;;;;5076821;28;20044;-74
2022/07/26 07:22:10;;;;;;;12.98;1.73;;;17.70;99.90;;;;;;5076149;28;20488;-74
2022/07/26 07:24:37;;;;;;;7.25;1.17;;;17.80;99.90;;;;;;5076444;28;20444;-74
2022/07/26 07:27:02;;;;;;;8.43;1.40;;;17.90;99.90;;;;;;5075136;28;20428;-75
2022/07/26 07:29:28;;;;;;;7.70;1.65;;;17.90;99.90;;;;;;5076587;28;20102;-76
2022/07/26 07:31:54;;;;;;;7.82;1.80;;;18.00;99.90;;;;;;5076515;28;20043;-75
2022/07/26 07:34:21;;;;;;;7.85;1.00;;;18.10;99.90;;;;;;5075236;28;20484;-75
2022/07/26 07:36:51;;;;;;;13.68;2.25;;;18.10;99.90;;;;;;5074983;28;20056;-75
2022/07/26 07:39:17;;;;;;;6.72;1.17;;;18.10;99.90;;;;;;5075010;28;20048;-74
2022/07/26 07:41:47;;;;;;;7.18;0.98;;;18.20;99.90;;;;;;5076316;28;20029;-75
2022/07/26 07:44:13;;;;;;;6.72;1.25;;;18.20;99.90;;;;;;5076330;28;20052;-75
2022/07/26 07:46:39;;;;;;;11.00;1.45;;;18.20;99.90;;;;;;5076143;28;20044;-75
2022/07/26 07:49:05;;;;;;;10.25;1.50;;;18.30;99.90;;;;;;5086397;28;20415;-75
2022/07/26 07:51:32;;;;;;;8.70;1.75;;;18.30;99.90;;;;;;5074994;28;20049;-75
2022/07/26 07:53:57;;;;;;;11.93;1.70;;;18.40;99.90;;;;;;5076153;28;20045;-75
2022/07/26 07:56:23;;;;;;;11.73;2.08;;;18.40;99.90;;;;;;5075744;28;20047;-75
2022/07/26 07:58:49;;;;;;;9.05;1.63;;;18.40;99.90;;;;;;5076066;28;20043;-75
2022/07/26 08:01:15;;;;;;;8.93;2.00;;;18.40;99.90;;;;;;5074786;28;20060;-74
2022/07/26 08:03:40;;;;;;;11.25;1.23;;;18.30;99.90;;;;;;5074714;28;20373;-74
2022/07/26 08:06:08;;;;;;;8.93;1.95;;;18.30;99.90;;;;;;5075827;28;20052;-74
2022/07/26 08:08:34;;;;;;;14.63;2.35;;;18.20;99.90;;;;;;5085863;28;20036;-74
2022/07/26 08:11:00;;;;;;;9.55;1.30;;;18.20;99.90;;;;;;5094237;28;20395;-74
2022/07/26 08:13:26;;;;;;;15.02;2.10;;;18.20;99.90;;;;;;5094040;28;20047;-74
2022/07/26 08:15:53;;;;;;;11.93;2.15;;;18.20;99.90;;;;;;5094889;28;20051;-74
2022/07/26 08:18:20;;;;;;;13.55;2.67;;;18.30;99.90;;;;;;5089272;28;20131;-75
2022/07/26 08:20:46;;;;;;;16.00;2.42;;;18.30;99.90;;;;;;5085235;28;20491;-76
2022/07/26 08:23:12;;;;;;;16.17;2.45;;;18.40;99.90;;;;;;5095002;28;20058;-75
2022/07/26 08:25:37;;;;;;;11.90;2.33;;;18.40;99.90;;;;;;5095331;28;20047;-75
2022/07/26 08:28:03;;;;;;;16.23;3.08;;;18.40;99.90;;;;;;5089243;28;20036;-74
2022/07/26 08:30:30;;;;;;;18.23;2.70;;;18.50;99.90;;;;;;5086857;28;20105;-74
2022/07/26 08:32:56;;;;;;;17.13;2.60;;;18.60;99.90;;;;;;5095005;28;20048;-75
2022/07/26 08:35:21;;;;;;;11.50;2.20;;;18.70;99.90;;;;;;5095377;28;20043;-75
2022/07/26 08:37:47;;;;;;;15.98;2.53;;;18.70;99.90;;;;;;5093995;28;20047;-75
2022/07/26 08:40:13;;;;;;;18.23;2.20;;;18.80;99.90;;;;;;5095384;28;20051;-75
2022/07/26 08:42:39;;;;;;;11.73;2.47;;;18.80;99.90;;;;;;5094027;28;20044;-75
2022/07/26 08:45:05;;;;;;;12.30;1.92;;;18.80;99.90;;;;;;5092791;28;20044;-75
2022/07/26 08:47:32;;;;;;;14.10;2.20;;;18.80;99.90;;;;;;5094424;28;20510;-75
2022/07/26 08:49:57;;;;;;;10.07;2.15;;;18.80;99.90;;;;;;5093862;28;20117;-74
2022/07/26 08:52:23;;;;;;;15.45;2.42;;;18.90;99.90;;;;;;5095274;28;20518;-76
2022/07/26 08:54:50;;;;;;;11.10;1.92;;;19.00;99.90;;;;;;5095155;28;20040;-76
2022/07/26 08:57:16;;;;;;;12.00;1.88;;;19.00;99.90;;;;;;5093856;28;20059;-75
2022/07/26 08:59:42;;;;;;;6.85;1.48;;;19.00;99.90;;;;;;5093639;28;20044;-75
2022/07/26 09:02:11;;;;;;;8.95;1.27;;;18.90;99.90;;;;;;5094972;28;20032;-75
2022/07/26 09:04:39;;;;;;;7.30;1.15;;;19.10;99.90;;;;;;5094828;28;20376;-75
2022/07/26 09:07:08;;;;;;;13.63;1.88;;;19.10;99.90;;;;;;5095052;28;20038;-76
2022/07/26 09:10:03;;;;;;;14.13;1.83;;;19.20;99.90;;;;;;5093393;28;20054;-76
2022/07/26 09:12:31;;;;;;;11.65;1.90;;;19.10;99.90;;;;;;5080353;28;20052;-76
2022/07/26 09:14:58;;;;;;;10.40;1.80;;;19.20;99.90;;;;;;5094540;28;20398;-75
2022/07/26 09:17:35;;;;;;;7.45;2.33;;;19.50;99.90;;;;;;5094882;28;20040;-77
2022/07/26 09:20:03;;;;;;;8.88;1.50;;;19.70;99.90;;;;;;5093317;28;20057;-75
2022/07/26 09:22:29;;;;;;;11.80;1.73;;;19.70;99.90;;;;;;5093188;28;20052;-75
2022/07/26 09:24:55;;;;;;;8.10;1.42;;;19.70;99.90;;;;;;5094375;28;20052;-75
2022/07/26 09:27:20;;;;;;;12.07;1.70;;;19.70;99.90;;;;;;5093760;28;20402;-75
2022/07/26 09:29:51;;;;;;;10.60;1.23;;;19.70;99.90;;;;;;5093008;28;20506;-75
2022/07/26 09:32:23;;;;;;;17.10;1.77;;;19.60;99.90;;;;;;5094393;28;20046;-76
2022/07/26 09:34:56;;;;;;;7.07;1.25;;;19.70;99.90;;;;;;5093020;28;20085;-76
2022/07/26 09:37:35;;;;;;;8.23;1.58;;;19.60;99.90;;;;;;5093020;28;20043;-76
2022/07/26 09:40:02;;;;;;;9.48;1.33;;;19.70;99.90;;;;;;5094162;28;20052;-75
2022/07/26 09:42:28;;;;;;;8.73;1.65;;;19.90;99.90;;;;;;5094223;28;20115;-75
2022/07/26 09:44:55;;;;;;;7.10;1.40;;;19.90;99.90;;;;;;5094324;28;20128;-76
2022/07/26 09:47:20;;;;;;;7.10;1.08;;;20.00;99.90;;;;;;5093304;28;20079;-77
2022/07/26 09:49:46;;;;;;;7.97;2.53;;;19.90;99.90;;;;;;5094257;28;20542;-76
2022/07/26 09:52:20;;;;;;;7.00;1.15;;;19.90;99.90;;;;;;5092902;28;20105;-74
2022/07/26 09:54:48;;;;;;;11.10;1.40;;;20.00;99.90;;;;;;5093868;28;20468;-74
2022/07/26 09:57:19;;;;;;;7.65;1.55;;;20.10;99.90;;;;;;5094014;28;20054;-75
2022/07/26 09:59:46;;;;;;;7.40;1.10;;;20.00;99.90;;;;;;5092617;28;20056;-74
2022/07/26 10:02:13;;;;;;;9.13;1.08;;;20.20;99.90;;;;;;5092409;28;20398;-74
2022/07/26 10:04:42;;;;;;;4.97;1.38;;;20.60;99.90;;;;;;5092766;28;20471;-74
2022/07/26 10:07:09;;;;;;;8.15;0.90;;;20.90;99.90;;;;;;5093838;28;20115;-74
2022/07/26 10:09:59;;;;;;;5.90;0.80;;;21.10;99.90;;;;;;5093959;28;20160;-75
2022/07/26 10:12:30;;;;;;;9.80;1.10;;;21.30;99.90;;;;;;5093990;28;20032;-75
2022/07/26 10:14:56;;;;;;;4.03;0.75;;;21.30;99.90;;;;;;5093814;28;20044;-75
2022/07/26 10:17:27;;;;;;;5.35;0.88;;;21.30;99.90;;;;;;5093586;28;20089;-74
2022/07/26 10:19:54;;;;;;;5.95;1.27;;;21.30;99.90;;;;;;5092489;28;20184;-75
2022/07/26 10:22:25;;;;;;;6.53;1.05;;;21.50;99.90;;;;;;5093389;28;20168;-74
2022/07/26 10:24:52;;;;;;;11.18;1.00;;;21.60;99.90;;;;;;5093453;28;20514;-75
2022/07/26 10:27:37;;;;;;;5.07;0.88;;;21.70;99.90;;;;;;5092457;28;20102;-74
2022/07/26 10:30:18;;;;;;;6.50;0.80;;;22.00;99.90;;;;;;5092462;28;20040;-75
2022/07/26 10:32:49;;;;;;;4.70;0.98;;;22.00;99.90;;;;;;5091975;28;20092;-74
2022/07/26 10:35:35;;;;;;;7.37;0.70;;;21.90;99.90;;;;;;5092196;28;20040;-73
2022/07/26 10:38:03;;;;;;;6.70;0.80;;;21.90;99.90;;;;;;5093424;28;20350;-74
2022/07/26 10:40:29;;;;;;;6.15;1.00;;;21.90;99.90;;;;;;5096942;28;20064;-75
2022/07/26 10:43:13;;;;;;;6.13;0.93;;;22.00;99.90;;;;;;5097625;28;20463;-74
2022/07/26 10:45:39;;;;;;;6.88;0.98;;;22.20;99.90;;;;;;5097773;28;20040;-74
2022/07/26 10:48:17;;;;;;;3.53;1.00;;;22.30;99.90;;;;;;5096154;28;20127;-74
2022/07/26 10:50:49;;;;;;;7.43;1.00;;;22.50;99.90;;;;;;5096448;28;20040;-74
2022/07/26 10:53:18;;;;;;;8.68;1.40;;;22.30;99.90;;;;;;5096139;28;20059;-75
2022/07/26 10:55:49;;;;;;;7.32;1.00;;;22.50;99.90;;;;;;5096246;28;20044;-74
2022/07/26 10:58:16;;;;;;;9.02;1.63;;;22.50;99.90;;;;;;5097387;28;20044;-74
2022/07/26 11:00:56;;;;;;;4.35;0.90;;;22.60;99.90;;;;;;5097384;28;20054;-74
2022/07/26 11:03:22;;;;;;;5.75;1.17;;;22.60;99.90;;;;;;5097059;28;20470;-76
2022/07/26 11:05:49;;;;;;;9.55;1.08;;;22.90;99.90;;;;;;5096058;28;20531;-76
2022/07/26 11:08:14;;;;;;;6.82;1.17;;;22.80;99.90;;;;;;5097303;28;20044;-75
2022/07/26 11:10:42;;;;;;;3.72;0.90;;;22.90;99.90;;;;;;5095715;28;20050;-75
2022/07/26 11:13:12;;;;;;;8.95;1.00;;;22.80;99.90;;;;;;5095953;28;20051;-75
2022/07/26 11:15:48;;;;;;;5.90;0.90;;;22.80;99.90;;;;;;5097245;28;20136;-75
2022/07/26 11:18:13;;;;;;;8.98;1.65;;;23.00;99.90;;;;;;5096867;28;20513;-75
2022/07/26 11:20:40;;;;;;;6.72;1.23;;;23.10;99.90;;;;;;5096980;28;20044;-75
2022/07/26 11:23:26;;;;;;;8.45;1.10;;;23.10;99.90;;;;;;5096502;28;20451;-74
2022/07/26 11:26:22;;;;;;;7.05;1.30;;;23.10;99.90;;;;;;5096989;28;20119;-74
2022/07/26 11:29:05;;;;;;;6.80;0.90;;;23.10;99.90;;;;;;5095578;28;20052;-76
2022/07/26 11:31:45;;;;;;;7.85;1.00;;;23.00;99.90;;;;;;5096854;28;20089;-76
2022/07/26 11:34:22;;;;;;;6.38;0.77;;;22.70;99.90;;;;;;5096773;28;20546;-75
2022/07/26 11:36:49;;;;;;;6.50;1.20;;;22.50;99.90;;;;;;5095559;28;20059;-75
2022/07/26 11:39:21;;;;;;;6.78;0.82;;;22.50;99.90;;;;;;5096443;28;20047;-76
2022/07/26 11:41:48;;;;;;;7.80;0.88;;;22.40;99.90;;;;;;5095478;28;20044;-75
2022/07/26 11:44:15;;;;;;;4.50;0.60;;;22.30;99.90;;;;;;5095073;28;20127;-75
2022/07/26 11:46:46;;;;;;;7.90;1.42;;;22.30;99.90;;;;;;5096538;28;20039;-74
2022/07/26 11:49:14;;;;;;;8.30;0.90;;;22.10;99.90;;;;;;5096656;28;20051;-74
2022/07/26 11:51:47;;;;;;;6.68;0.98;;;22.20;99.90;;;;;;5095355;28;20512;-75
2022/07/26 11:54:13;;;;;;;4.07;1.05;;;22.10;99.90;;;;;;5096512;28;20111;-75
2022/07/26 11:56:39;;;;;;;3.65;0.63;;;21.80;99.90;;;;;;5094940;28;20151;-75
2022/07/26 11:59:04;;;;;;;5.75;0.77;;;21.60;99.90;;;;;;5096390;28;20047;-74
2022/07/26 12:01:30;;;;;;;8.30;0.85;;;21.70;99.90;;;;;;5096500;28;20492;-75
2022/07/26 12:03:56;;;;;;;11.70;1.50;;;21.60;99.90;;;;;;5095927;28;20048;-75
2022/07/26 12:06:25;;;;;;;8.82;1.20;;;21.50;99.90;;;;;;5094444;28;20052;-76
2022/07/26 12:08:56;;;;;;;6.18;0.98;;;21.70;99.90;;;;;;5096113;28;20043;-75
2022/07/26 12:11:24;;;;;;;6.25;1.05;;;21.70;99.90;;;;;;5096067;28;20036;-75
2022/07/26 12:14:00;;;;;;;7.82;1.65;;;21.60;99.90;;;;;;5094622;28;20094;-74
2022/07/26 12:16:40;;;;;;;7.57;0.95;;;21.30;99.90;;;;;;5096000;28;20040;-75
2022/07/26 12:19:16;;;;;;;8.88;1.48;;;21.60;99.90;;;;;;5096078;28;20052;-75
2022/07/26 12:21:47;;;;;;;5.05;1.55;;;22.00;99.90;;;;;;5095506;28;20513;-75
2022/07/26 12:24:46;;;;;;;7.90;1.20;;;22.30;99.90;;;;;;5095689;28;20052;-74
2022/07/26 12:27:15;;;;;;;6.07;1.00;;;22.10;99.90;;;;;;5095779;28;20123;-74
2022/07/26 12:29:43;;;;;;;5.60;0.77;;;22.10;99.90;;;;;;5094932;28;20054;-74
2022/07/26 12:32:35;;;;;;;6.32;0.90;;;22.30;99.90;;;;;;5095373;28;20387;-75
2022/07/26 12:35:11;;;;;;;5.93;0.98;;;22.00;99.90;;;;;;5088867;28;20056;-74
2022/07/26 12:37:46;;;;;;;3.80;0.75;;;21.90;99.90;;;;;;5094283;28;20059;-74
2022/07/26 12:40:12;;;;;;;4.05;0.93;;;21.90;99.90;;;;;;5094331;28;20080;-74
2022/07/26 12:42:43;;;;;;;3.90;0.70;;;21.80;99.90;;;;;;5095508;28;20072;-74
2022/07/26 12:45:11;;;;;;;5.30;0.80;;;22.00;99.90;;;;;;5094314;28;20180;-74
2022/07/26 12:47:42;;;;;;;6.65;0.90;;;22.10;99.90;;;;;;5094132;28;20052;-73